Time;durP1;ratioP1;P1;durP2;ratioP2;P2;SDS_P1;SDS_P2;PMS_P1;PMS_P2;Temp;Humidity;BMP_temperature;BMP_pressure;BME280_temperature;BME280_humidity;BME280_pressure;Samples;Min_cycle;Max_cycle;Signal;HPM_P1;HPM_P2
2022/10/04 00:01:47;;;;;;;4.10;3.70;;;7.00;99.90;;;;;;5052080;28;20221;-68
2022/10/04 00:04:19;;;;;;;4.68;4.07;;;6.90;99.90;;;;;;5052296;28;20228;-68
2022/10/04 00:06:51;;;;;;;4.38;3.75;;;6.90;99.90;;;;;;5052104;28;20206;-68
2022/10/04 00:09:23;;;;;;;4.35;3.85;;;6.90;99.90;;;;;;5052250;28;20201;-68
2022/10/04 00:11:52;;;;;;;4.00;3.65;;;6.90;99.90;;;;;;5052019;28;20225;-68
2022/10/04 00:14:25;;;;;;;4.82;4.32;;;6.90;99.90;;;;;;5052283;28;20277;-68
2022/10/04 00:16:52;;;;;;;5.20;4.20;;;6.80;99.90;;;;;;5052625;28;20677;-68
2022/10/04 00:19:26;;;;;;;4.93;4.05;;;6.80;99.90;;;;;;5052169;28;20573;-68
2022/10/04 00:22:21;;;;;;;5.25;4.03;;;6.80;99.90;;;;;;5051750;28;20610;-68
2022/10/04 00:25:33;;;;;;;6.63;3.97;;;6.70;99.90;;;;;;5052371;28;20226;-68
2022/10/04 00:28:41;;;;;;;4.40;3.85;;;6.70;99.90;;;;;;5052467;28;20202;-68
2022/10/04 00:31:26;;;;;;;5.07;4.10;;;6.70;99.90;;;;;;5051990;28;20205;-69
2022/10/04 00:33:56;;;;;;;6.28;4.22;;;6.70;99.90;;;;;;5052222;28;20592;-68
2022/10/04 00:36:52;;;;;;;3.85;3.45;;;6.70;99.90;;;;;;5051942;28;20209;-68
2022/10/04 00:39:49;;;;;;;5.60;3.50;;;6.70;99.90;;;;;;5051892;28;20209;-68
2022/10/04 00:42:46;;;;;;;4.53;4.10;;;6.60;99.90;;;;;;5050822;28;20231;-68
2022/10/04 00:45:27;;;;;;;6.65;4.25;;;6.60;99.90;;;;;;5051853;28;20253;-68
2022/10/04 00:48:16;;;;;;;6.15;4.13;;;6.60;99.90;;;;;;5052031;28;20260;-68
2022/10/04 00:50:47;;;;;;;4.50;3.10;;;6.60;99.90;;;;;;5035033;28;20194;-68
2022/10/04 00:53:21;;;;;;;4.93;3.88;;;6.60;99.90;;;;;;5053824;28;20660;-68
2022/10/04 00:55:54;;;;;;;4.18;3.78;;;6.60;99.90;;;;;;5072022;28;20216;-68
2022/10/04 00:58:27;;;;;;;8.50;3.88;;;6.60;99.90;;;;;;5071584;28;20212;-68
2022/10/04 01:00:55;;;;;;;4.40;4.00;;;6.50;99.90;;;;;;5071575;28;20232;-68
2022/10/04 01:03:30;;;;;;;4.80;3.75;;;6.50;99.90;;;;;;5070562;28;20204;-68
2022/10/04 01:06:00;;;;;;;5.28;3.50;;;6.50;99.90;;;;;;5071632;28;20207;-68
2022/10/04 01:08:31;;;;;;;5.07;3.90;;;6.40;99.90;;;;;;5071234;28;20205;-69
2022/10/04 01:11:03;;;;;;;5.32;3.40;;;6.40;99.90;;;;;;5071209;28;20251;-68
2022/10/04 01:13:35;;;;;;;4.38;3.47;;;6.40;99.90;;;;;;5070587;28;20221;-68
2022/10/04 01:16:06;;;;;;;5.13;3.40;;;6.40;99.90;;;;;;5071439;28;20211;-68
2022/10/04 01:18:34;;;;;;;5.13;3.65;;;6.30;99.90;;;;;;5071470;28;20646;-68
2022/10/04 01:21:06;;;;;;;3.92;3.53;;;6.30;99.90;;;;;;5070716;28;20221;-68
2022/10/04 01:23:39;;;;;;;4.95;4.38;;;6.30;99.90;;;;;;5070322;28;20576;-68
2022/10/04 01:26:28;;;;;;;6.38;4.38;;;6.30;99.90;;;;;;5070777;28;20734;-68
2022/10/04 01:28:55;;;;;;;6.15;3.88;;;6.20;99.90;;;;;;5070601;28;20650;-68
2022/10/04 01:31:22;;;;;;;6.68;4.40;;;6.20;99.90;;;;;;5050202;28;20194;-68
2022/10/04 01:33:49;;;;;;;6.95;3.35;;;6.20;99.90;;;;;;5050370;28;20268;-68
2022/10/04 01:36:16;;;;;;;4.20;3.33;;;6.20;99.90;;;;;;5050441;28;20615;-68
2022/10/04 01:38:44;;;;;;;5.60;3.67;;;6.10;99.90;;;;;;5050602;28;20205;-68
2022/10/04 01:41:13;;;;;;;5.93;3.92;;;6.20;99.90;;;;;;5049883;28;20245;-68
2022/10/04 01:43:43;;;;;;;6.80;4.22;;;6.20;99.90;;;;;;5050320;28;20221;-68
2022/10/04 01:46:14;;;;;;;4.40;3.55;;;6.20;99.90;;;;;;5050303;28;20201;-68
2022/10/04 01:48:45;;;;;;;4.10;3.70;;;6.10;99.90;;;;;;5050546;28;20229;-68
2022/10/04 01:51:16;;;;;;;4.55;3.85;;;6.10;99.90;;;;;;5049474;28;20217;-68
2022/10/04 01:53:50;;;;;;;4.03;3.17;;;6.10;99.90;;;;;;5050273;28;20592;-69
2022/10/04 01:56:21;;;;;;;4.75;3.85;;;6.10;99.90;;;;;;5050097;28;20206;-68
2022/10/04 01:58:51;;;;;;;3.80;3.38;;;6.10;99.90;;;;;;5050691;28;20205;-68
2022/10/04 02:01:23;;;;;;;4.20;3.45;;;6.00;99.90;;;;;;5049217;28;20220;-68
2022/10/04 02:03:57;;;;;;;4.43;3.40;;;6.00;99.90;;;;;;5050117;28;20706;-68
2022/10/04 02:06:25;;;;;;;4.85;3.70;;;6.00;99.90;;;;;;5049829;28;20210;-68
2022/10/04 02:08:56;;;;;;;4.00;3.33;;;6.00;99.90;;;;;;5050264;28;20208;-68
2022/10/04 02:11:24;;;;;;;4.82;4.28;;;6.00;99.90;;;;;;5049033;28;20204;-68
2022/10/04 02:13:54;;;;;;;3.85;3.55;;;6.00;99.90;;;;;;5050170;28;20253;-68
2022/10/04 02:16:23;;;;;;;5.43;3.58;;;6.00;99.90;;;;;;5049729;28;20678;-68
2022/10/04 02:18:51;;;;;;;3.60;3.00;;;6.00;99.90;;;;;;5049896;28;20208;-68
2022/10/04 02:21:19;;;;;;;7.60;4.07;;;5.90;99.90;;;;;;5048654;28;20407;-68
2022/10/04 02:23:47;;;;;;;4.63;3.63;;;5.90;99.90;;;;;;5050052;28;20225;-68
2022/10/04 02:26:15;;;;;;;4.88;4.25;;;5.90;99.90;;;;;;5049532;28;20209;-68
2022/10/04 02:28:42;;;;;;;3.85;3.20;;;5.90;99.90;;;;;;5050013;28;20224;-68
2022/10/04 02:33:58;;;;;;;4.28;3.88;;;5.80;99.90;;;;;;5049969;28;20221;-68
2022/10/04 02:36:27;;;;;;;6.55;4.45;;;5.80;99.90;;;;;;5118515;23;20247;-68
2022/10/04 02:38:59;;;;;;;3.67;3.30;;;5.80;99.90;;;;;;5049757;28;20297;-68
2022/10/04 02:41:31;;;;;;;4.20;3.80;;;5.80;99.90;;;;;;5048831;28;20226;-68
2022/10/04 02:44:03;;;;;;;5.85;4.85;;;5.70;99.90;;;;;;5049836;28;20279;-68
2022/10/04 02:46:35;;;;;;;4.47;3.40;;;5.80;99.90;;;;;;5049194;28;20198;-68
2022/10/04 02:49:06;;;;;;;4.82;4.35;;;5.80;99.90;;;;;;5049337;28;20202;-68
2022/10/04 02:51:38;;;;;;;4.30;3.17;;;5.80;99.90;;;;;;5048983;28;20204;-68
2022/10/04 02:54:13;;;;;;;5.55;3.80;;;5.70;99.90;;;;;;5050189;28;20218;-68
2022/10/04 02:56:42;;;;;;;4.90;3.70;;;5.70;99.90;;;;;;5050232;28;20209;-68
2022/10/04 02:59:16;;;;;;;4.63;3.75;;;5.80;99.90;;;;;;5049992;28;20203;-68
2022/10/04 03:01:50;;;;;;;4.68;3.75;;;5.80;99.90;;;;;;5049195;28;20236;-68
2022/10/04 03:04:22;;;;;;;4.43;4.00;;;5.70;99.90;;;;;;5049359;28;20229;-68
2022/10/04 03:06:50;;;;;;;3.63;3.33;;;5.70;99.90;;;;;;5050095;28;20574;-68
2022/10/04 03:09:20;;;;;;;7.25;4.20;;;5.70;99.90;;;;;;5049718;28;20201;-68
2022/10/04 03:11:49;;;;;;;5.28;3.17;;;5.70;99.90;;;;;;5049418;28;20280;-69
2022/10/04 03:14:20;;;;;;;5.32;3.78;;;5.70;99.90;;;;;;5049757;28;20228;-68
2022/10/04 03:16:49;;;;;;;4.55;3.42;;;5.70;99.90;;;;;;5049903;28;20230;-69
2022/10/04 03:19:18;;;;;;;5.18;3.85;;;5.70;99.90;;;;;;5049422;28;20245;-68
2022/10/04 03:21:47;;;;;;;5.32;3.97;;;5.60;99.90;;;;;;5049062;28;20616;-68
2022/10/04 03:24:18;;;;;;;4.10;3.22;;;5.60;99.90;;;;;;5049265;28;20228;-68
2022/10/04 03:26:49;;;;;;;4.18;3.78;;;5.60;99.90;;;;;;5049793;28;20206;-68
2022/10/04 03:29:17;;;;;;;5.35;3.50;;;5.60;99.90;;;;;;5049370;28;20205;-68
2022/10/04 03:31:46;;;;;;;4.80;3.75;;;5.60;99.90;;;;;;5048794;28;20198;-68
2022/10/04 03:34:15;;;;;;;4.80;4.07;;;5.60;99.90;;;;;;5048597;28;20689;-68
2022/10/04 03:36:43;;;;;;;4.10;3.70;;;5.60;99.90;;;;;;5068596;28;20594;-68
2022/10/04 03:39:12;;;;;;;5.03;3.85;;;5.60;99.90;;;;;;5067384;28;20197;-68
2022/10/04 03:41:39;;;;;;;6.25;4.20;;;5.60;99.90;;;;;;5066407;28;20891;-68
2022/10/04 03:44:14;;;;;;;4.50;3.67;;;5.60;99.90;;;;;;5070005;28;20220;-68
2022/10/04 03:46:42;;;;;;;4.43;3.97;;;5.60;99.90;;;;;;5223035;22;20233;-68
2022/10/04 03:49:12;;;;;;;4.28;3.40;;;5.60;99.90;;;;;;5052424;28;20196;-67
2022/10/04 03:51:46;;;;;;;5.28;4.43;;;5.60;99.90;;;;;;5052409;28;20214;-68
2022/10/04 03:54:18;;;;;;;6.03;4.40;;;5.60;99.90;;;;;;5052505;28;20220;-68
2022/10/04 03:56:46;;;;;;;4.45;4.05;;;5.60;99.90;;;;;;5052488;28;20197;-68
2022/10/04 03:59:17;;;;;;;11.40;4.45;;;5.60;99.90;;;;;;5052089;28;20202;-68
2022/10/04 04:01:48;;;;;;;6.60;4.10;;;5.60;99.90;;;;;;5051168;28;20299;-68
2022/10/04 04:04:22;;;;;;;4.82;4.15;;;5.60;99.90;;;;;;5048693;28;20690;-68
2022/10/04 04:06:58;;;;;;;4.80;3.90;;;5.60;99.90;;;;;;5051265;28;20575;-68
2022/10/04 04:09:33;;;;;;;4.90;4.07;;;5.60;99.90;;;;;;5051178;28;20212;-68
2022/10/04 04:12:02;;;;;;;4.55;3.35;;;5.60;99.90;;;;;;5048788;28;20554;-68
2022/10/04 04:14:31;;;;;;;3.90;3.40;;;5.50;99.90;;;;;;5050977;28;20214;-68
2022/10/04 04:17:18;;;;;;;4.90;4.07;;;5.50;99.90;;;;;;5050858;28;20199;-68
2022/10/04 04:19:46;;;;;;;4.28;3.30;;;5.60;99.90;;;;;;5049833;28;20694;-68
2022/10/04 04:22:17;;;;;;;4.20;3.80;;;5.50;99.90;;;;;;5048252;28;20213;-67
2022/10/04 04:24:45;;;;;;;4.03;3.63;;;5.50;99.90;;;;;;5048358;28;20737;-66
2022/10/04 04:27:16;;;;;;;5.03;4.05;;;5.50;99.90;;;;;;5049994;28;20198;-67
2022/10/04 04:29:48;;;;;;;4.13;3.55;;;5.50;99.90;;;;;;5050828;28;20202;-67
2022/10/04 04:32:19;;;;;;;4.68;3.97;;;5.50;99.90;;;;;;5050740;28;20251;-68
2022/10/04 04:34:51;;;;;;;6.43;3.70;;;5.60;99.90;;;;;;5051431;28;20226;-68
2022/10/04 04:37:18;;;;;;;5.10;3.85;;;5.50;99.90;;;;;;5051246;28;20217;-68
2022/10/04 04:39:50;;;;;;;4.20;3.80;;;5.50;99.90;;;;;;5051561;28;20206;-68
2022/10/04 04:42:22;;;;;;;3.83;3.45;;;5.50;99.90;;;;;;5050330;28;20213;-68
2022/10/04 04:44:52;;;;;;;5.95;3.97;;;5.50;99.90;;;;;;5051221;28;20217;-68
2022/10/04 04:47:28;;;;;;;7.25;3.92;;;5.50;99.90;;;;;;5031284;28;20214;-68
2022/10/04 04:49:57;;;;;;;4.10;3.63;;;5.50;99.90;;;;;;5032056;28;20206;-67
2022/10/04 04:52:27;;;;;;;4.57;3.22;;;5.50;99.90;;;;;;5030848;28;20199;-69
2022/10/04 04:54:55;;;;;;;7.10;3.42;;;5.50;99.90;;;;;;5031870;28;20450;-68
2022/10/04 04:57:22;;;;;;;5.00;3.40;;;5.50;99.90;;;;;;5031387;28;20591;-68
2022/10/04 04:59:54;;;;;;;4.03;3.42;;;5.50;99.90;;;;;;5031759;28;20213;-68
2022/10/04 05:02:29;;;;;;;4.72;3.88;;;5.50;99.90;;;;;;5031074;28;20226;-67
2022/10/04 05:05:19;;;;;;;5.57;4.22;;;5.50;99.90;;;;;;5031518;28;20221;-69
2022/10/04 05:07:46;;;;;;;5.30;3.95;;;5.40;99.90;;;;;;5022916;28;20207;-68
2022/10/04 05:10:30;;;;;;;6.15;4.13;;;5.40;99.90;;;;;;5049657;28;20205;-68
2022/10/04 05:12:59;;;;;;;4.75;3.67;;;5.40;99.90;;;;;;5050586;28;20600;-68
2022/10/04 05:15:31;;;;;;;4.00;3.60;;;5.40;99.90;;;;;;5047874;28;20245;-69
2022/10/04 05:17:58;;;;;;;3.40;3.10;;;5.40;99.90;;;;;;5049846;28;20217;-67
2022/10/04 05:20:26;;;;;;;3.70;3.30;;;5.40;99.90;;;;;;5049849;28;20191;-68
2022/10/04 05:22:53;;;;;;;4.40;3.88;;;5.40;99.90;;;;;;5050410;28;20771;-68
2022/10/04 05:25:28;;;;;;;3.90;3.50;;;5.40;99.90;;;;;;5051342;28;20892;-68
2022/10/04 05:27:55;;;;;;;6.20;3.70;;;5.40;99.90;;;;;;5050899;28;20205;-68
2022/10/04 05:30:43;;;;;;;4.13;3.58;;;5.40;99.90;;;;;;5051146;28;20605;-67
2022/10/04 05:33:13;;;;;;;4.03;3.00;;;5.40;99.90;;;;;;5049634;28;20190;-68
2022/10/04 05:35:53;;;;;;;4.13;3.58;;;5.40;99.90;;;;;;5050694;28;20572;-68
2022/10/04 05:38:27;;;;;;;3.25;2.90;;;5.40;99.90;;;;;;5046997;28;20661;-68
2022/10/04 05:41:01;;;;;;;5.45;3.35;;;5.40;99.90;;;;;;5050193;28;20197;-68
2022/10/04 05:43:36;;;;;;;3.90;3.50;;;5.50;99.90;;;;;;5049852;28;20221;-68
2022/10/04 05:46:23;;;;;;;4.15;3.25;;;5.50;99.90;;;;;;5049910;28;20224;-68
2022/10/04 05:48:54;;;;;;;3.90;3.35;;;5.50;99.90;;;;;;5048961;28;20213;-68
2022/10/04 05:51:23;;;;;;;3.30;3.00;;;5.50;99.90;;;;;;5050170;28;20205;-69
2022/10/04 05:53:51;;;;;;;3.47;2.72;;;5.60;99.90;;;;;;5050583;28;20221;-72
2022/10/04 05:56:36;;;;;;;4.43;3.50;;;5.60;99.90;;;;;;5050836;28;20584;-68
2022/10/04 05:59:18;;;;;;;2.50;2.30;;;5.70;99.90;;;;;;5050558;28;20197;-69
2022/10/04 06:01:55;;;;;;;6.70;3.25;;;5.70;99.90;;;;;;5049693;28;20213;-69
2022/10/04 06:04:47;;;;;;;4.53;3.72;;;5.70;99.90;;;;;;5050154;28;20232;-69
2022/10/04 06:07:22;;;;;;;4.13;3.65;;;5.80;99.90;;;;;;5050673;28;20207;-69
2022/10/04 06:10:03;;;;;;;5.68;4.20;;;5.80;99.90;;;;;;5050252;28;20665;-68
2022/10/04 06:12:45;;;;;;;6.18;3.90;;;5.90;99.90;;;;;;5050015;28;20197;-69
2022/10/04 06:15:26;;;;;;;10.57;3.80;;;5.90;99.90;;;;;;5050516;28;20218;-69
2022/10/04 06:18:15;;;;;;;5.10;4.10;;;6.00;99.90;;;;;;5050242;28;20261;-71
2022/10/04 06:20:57;;;;;;;4.30;3.90;;;6.00;99.90;;;;;;5050099;28;20222;-68
2022/10/04 06:23:28;;;;;;;4.10;3.38;;;6.10;99.90;;;;;;5050011;28;20234;-68
2022/10/04 06:25:59;;;;;;;4.15;3.75;;;6.20;99.90;;;;;;5050284;28;20210;-68
2022/10/04 06:28:31;;;;;;;4.90;4.30;;;6.20;99.90;;;;;;5050537;28;20202;-69
2022/10/04 06:31:26;;;;;;;4.97;4.10;;;6.20;99.90;;;;;;5049841;28;20208;-67
2022/10/04 06:34:14;;;;;;;4.85;3.60;;;6.30;99.90;;;;;;5050094;28;20218;-68
2022/10/04 06:37:00;;;;;;;6.28;3.50;;;6.30;99.90;;;;;;5050362;28;20225;-69
2022/10/04 06:39:58;;;;;;;4.35;3.95;;;6.30;99.90;;;;;;5050376;28;20201;-68
2022/10/04 06:42:50;;;;;;;4.82;4.03;;;6.40;99.90;;;;;;5049638;28;20228;-68
2022/10/04 06:45:36;;;;;;;4.20;3.80;;;6.50;99.90;;;;;;5050272;28;20229;-68
2022/10/04 06:48:16;;;;;;;3.75;3.25;;;6.60;99.90;;;;;;5049943;28;20216;-67
2022/10/04 06:50:49;;;;;;;4.40;3.13;;;6.60;99.90;;;;;;5049869;28;20209;-68
2022/10/04 06:53:25;;;;;;;3.97;3.40;;;6.80;99.90;;;;;;5049641;28;20318;-67
2022/10/04 06:56:10;;;;;;;6.78;4.25;;;6.90;99.90;;;;;;5049923;28;20570;-67
2022/10/04 06:58:56;;;;;;;3.40;3.10;;;7.00;99.90;;;;;;5050143;28;20203;-67
2022/10/04 07:01:27;;;;;;;5.70;3.80;;;7.10;99.90;;;;;;5049568;28;20202;-68
2022/10/04 07:04:01;;;;;;;8.35;3.33;;;7.20;99.90;;;;;;5046102;28;20319;-68
2022/10/04 07:06:33;;;;;;;4.30;3.85;;;7.30;99.90;;;;;;5047093;28;20692;-67
2022/10/04 07:09:04;;;;;;;4.32;3.90;;;7.40;99.90;;;;;;5049087;28;20208;-68
2022/10/04 07:11:41;;;;;;;4.57;3.97;;;7.50;99.90;;;;;;5048588;28;20584;-68
2022/10/04 07:14:15;;;;;;;5.68;4.30;;;7.60;99.90;;;;;;5049193;28;20223;-68
2022/10/04 07:16:46;;;;;;;4.65;4.05;;;7.60;99.90;;;;;;5050726;28;20206;-68
2022/10/04 07:19:35;;;;;;;4.80;3.70;;;7.70;99.90;;;;;;5052669;28;20198;-68
2022/10/04 07:22:14;;;;;;;5.85;3.92;;;7.80;99.90;;;;;;5052204;28;20691;-68
2022/10/04 07:24:51;;;;;;;5.18;3.47;;;7.90;99.90;;;;;;5052820;28;20595;-68
2022/10/04 07:27:22;;;;;;;4.00;3.60;;;8.00;99.90;;;;;;5052616;28;20203;-68
2022/10/04 07:29:52;;;;;;;4.13;3.35;;;8.10;99.90;;;;;;5052633;28;20594;-68
2022/10/04 07:32:23;;;;;;;4.38;3.97;;;8.20;99.90;;;;;;5051984;28;20672;-68
2022/10/04 07:34:54;;;;;;;3.90;3.50;;;8.20;99.90;;;;;;5052281;28;20224;-68
2022/10/04 07:37:25;;;;;;;6.70;4.50;;;8.30;99.90;;;;;;5052943;28;20208;-68
2022/10/04 07:40:00;;;;;;;6.22;3.97;;;8.40;99.90;;;;;;5051721;28;20221;-68
2022/10/04 07:42:31;;;;;;;7.05;4.28;;;8.50;99.90;;;;;;5051957;28;20245;-69
2022/10/04 07:45:06;;;;;;;4.07;3.75;;;8.60;99.90;;;;;;5052513;28;20252;-68
2022/10/04 07:47:33;;;;;;;4.82;3.95;;;8.60;99.90;;;;;;5052771;28;20216;-68
2022/10/04 07:50:00;;;;;;;4.97;3.95;;;8.70;99.90;;;;;;5052148;28;20204;-68
2022/10/04 07:52:51;;;;;;;4.97;4.20;;;8.70;99.90;;;;;;5051628;28;20586;-68
2022/10/04 07:55:24;;;;;;;3.63;3.33;;;8.80;99.90;;;;;;5052064;28;20228;-67
2022/10/04 07:58:01;;;;;;;3.83;3.38;;;8.90;99.90;;;;;;5049350;28;20197;-67
2022/10/04 08:00:36;;;;;;;4.50;4.10;;;8.90;99.90;;;;;;5051803;28;20220;-67
2022/10/04 08:03:23;;;;;;;4.97;4.13;;;9.00;99.90;;;;;;5050996;28;20225;-67
2022/10/04 08:05:58;;;;;;;4.60;4.00;;;9.10;99.90;;;;;;5051889;28;20211;-65
2022/10/04 08:08:45;;;;;;;4.70;4.20;;;9.20;99.90;;;;;;5052845;28;20726;-66
2022/10/04 08:11:26;;;;;;;5.47;4.55;;;9.30;99.90;;;;;;5051693;28;20208;-67
2022/10/04 08:14:00;;;;;;;6.07;4.00;;;9.30;99.90;;;;;;5051705;28;20363;-67
2022/10/04 08:16:35;;;;;;;5.13;4.20;;;9.40;99.90;;;;;;5052403;28;20208;-67
2022/10/04 08:19:23;;;;;;;5.68;4.25;;;9.50;99.90;;;;;;5051160;28;20208;-67
2022/10/04 08:22:01;;;;;;;5.07;3.78;;;9.60;99.90;;;;;;5050993;28;20201;-68
2022/10/04 08:24:35;;;;;;;5.80;4.25;;;9.70;99.90;;;;;;5051545;28;20232;-66
2022/10/04 08:27:39;;;;;;;5.05;3.95;;;9.80;99.90;;;;;;5051609;28;20212;-66
2022/10/04 08:30:11;;;;;;;4.38;3.97;;;9.90;99.90;;;;;;5031425;28;20206;-66
2022/10/04 08:33:06;;;;;;;5.80;4.20;;;9.90;99.90;;;;;;5045132;28;20280;-66
2022/10/04 08:35:37;;;;;;;4.65;3.35;;;10.00;99.90;;;;;;5070373;28;20251;-68
2022/10/04 08:38:23;;;;;;;5.97;4.53;;;10.10;99.90;;;;;;5072249;28;20212;-65
2022/10/04 08:41:37;;;;;;;3.50;3.20;;;10.10;99.90;;;;;;5071600;28;20205;-66
2022/10/04 08:44:34;;;;;;;4.55;4.13;;;10.20;99.90;;;;;;5072197;28;20228;-66
2022/10/04 08:47:49;;;;;;;5.00;3.38;;;10.20;99.90;;;;;;5072038;28;20205;-66
2022/10/04 08:51:02;;;;;;;4.82;3.83;;;10.20;99.90;;;;;;5072374;28;20211;-67
2022/10/04 08:54:02;;;;;;;3.45;2.95;;;10.30;99.90;;;;;;5071702;28;20221;-67
2022/10/04 08:56:45;;;;;;;4.85;4.32;;;10.50;99.90;;;;;;5062341;28;20201;-67
2022/10/04 08:59:32;;;;;;;5.50;3.53;;;10.60;99.90;;;;;;5072063;28;20201;-67
2022/10/04 09:02:25;;;;;;;4.97;3.80;;;10.80;99.90;;;;;;5067447;28;20216;-67
2022/10/04 09:05:16;;;;;;;4.88;3.47;;;11.10;99.90;;;;;;5071748;28;20239;-67
2022/10/04 09:08:16;;;;;;;3.85;3.45;;;11.40;99.90;;;;;;5071887;28;20201;-67
2022/10/04 09:10:59;;;;;;;4.10;3.15;;;11.70;99.90;;;;;;5071672;28;20201;-68
2022/10/04 09:13:47;;;;;;;4.03;3.13;;;12.10;99.90;;;;;;5070919;28;20217;-67
2022/10/04 09:16:18;;;;;;;3.45;3.13;;;12.40;99.90;;;;;;5071617;28;20205;-67
2022/10/04 09:19:04;;;;;;;3.03;2.80;;;12.70;99.90;;;;;;5071538;28;20201;-72
2022/10/04 09:21:49;;;;;;;2.53;2.33;;;12.80;99.90;;;;;;5054800;28;20208;-67
2022/10/04 09:24:44;;;;;;;3.80;3.33;;;12.80;99.90;;;;;;5050607;28;20226;-67
2022/10/04 09:27:22;;;;;;;4.25;3.38;;;12.90;99.90;;;;;;5051539;28;20205;-66
2022/10/04 09:30:10;;;;;;;3.80;3.13;;;13.10;99.90;;;;;;5048013;28;20680;-67
2022/10/04 09:32:56;;;;;;;4.17;3.10;;;13.40;99.90;;;;;;5050576;28;20202;-67
2022/10/04 09:35:58;;;;;;;2.70;2.25;;;13.60;99.90;;;;;;5049538;28;20479;-67
2022/10/04 09:38:52;;;;;;;3.43;3.13;;;13.80;99.90;;;;;;5049844;28;20193;-68
2022/10/04 09:41:39;;;;;;;4.03;2.70;;;13.70;99.90;;;;;;5050724;28;20820;-67
2022/10/04 09:44:32;;;;;;;3.00;2.70;;;13.30;99.90;;;;;;5050707;28;20542;-66
2022/10/04 09:47:30;;;;;;;3.00;2.17;;;13.20;99.90;;;;;;5050864;28;20300;-67
2022/10/04 09:50:28;;;;;;;2.30;2.10;;;13.20;99.90;;;;;;5050664;28;20977;-66
2022/10/04 09:53:03;;;;;;;3.00;2.70;;;13.10;99.90;;;;;;5050495;28;20491;-67
2022/10/04 09:55:51;;;;;;;6.57;2.38;;;13.10;99.90;;;;;;5050966;28;20243;-67
2022/10/04 09:58:57;;;;;;;2.90;2.60;;;13.30;99.90;;;;;;5050956;28;20213;-67
2022/10/04 10:01:32;;;;;;;5.17;2.90;;;13.70;99.90;;;;;;5050159;28;20559;-67
2022/10/04 10:04:29;;;;;;;3.30;2.60;;;14.10;99.90;;;;;;5050513;28;20491;-67
2022/10/04 10:07:23;;;;;;;2.40;2.20;;;14.40;99.90;;;;;;5043235;28;20463;-66
2022/10/04 10:16:11;;;;;;;3.23;2.10;;;15.20;99.90;;;;;;5050636;28;21001;-66
2022/10/04 10:18:50;;;;;;;2.90;2.53;;;15.40;99.90;;;;;;5050025;28;20459;-66
2022/10/04 10:21:31;;;;;;;2.63;2.20;;;15.60;99.90;;;;;;5049939;28;20468;-66
2022/10/04 10:24:26;;;;;;;2.20;1.87;;;15.70;99.90;;;;;;5050311;28;20853;-67
2022/10/04 10:27:02;;;;;;;3.30;1.97;;;15.60;99.90;;;;;;5050534;28;20459;-68
2022/10/04 10:30:02;;;;;;;2.70;2.50;;;15.60;99.90;;;;;;5050198;28;20817;-66
2022/10/04 10:33:20;;;;;;;4.83;2.53;;;15.60;99.90;;;;;;5049301;28;20460;-66
2022/10/04 10:36:11;;;;;;;2.50;2.07;;;15.80;99.90;;;;;;4969194;28;20460;-66
2022/10/04 10:38:53;;;;;;;3.57;2.40;;;16.10;99.90;;;;;;5050442;28;20448;-67
2022/10/04 10:41:50;;;;;;;2.37;2.07;;;16.30;99.90;;;;;;5049365;28;20460;-66
2022/10/04 10:45:04;;;;;;;2.80;2.33;;;16.50;99.90;;;;;;5036901;28;20995;-66
2022/10/04 10:47:43;;;;;;;3.43;2.50;;;16.50;99.90;;;;;;5050284;28;20555;-67
2022/10/04 10:50:57;;;;;;;2.50;2.30;;;16.50;99.90;;;;;;5049936;28;20466;-66
2022/10/04 10:53:54;;;;;;;6.40;2.43;;;16.80;99.90;;;;;;5053297;28;20448;-67
2022/10/04 10:56:45;;;;;;;2.47;2.27;;;17.00;99.90;;;;;;5028843;28;20464;-67
2022/10/04 11:02:04;;;;;;;2.77;2.20;;;17.30;99.90;;;;;;5122114;22;20479;-68
2022/10/04 11:04:48;;;;;;;2.23;2.00;;;17.40;99.90;;;;;;5054117;28;20502;-67
2022/10/04 11:07:42;;;;;;;2.87;2.10;;;17.50;99.90;;;;;;5054508;28;20456;-68
2022/10/04 11:10:42;;;;;;;3.23;2.13;;;17.40;99.90;;;;;;5053637;28;20948;-68
2022/10/04 11:13:36;;;;;;;4.00;2.40;;;17.40;99.90;;;;;;5053195;28;20455;-67
2022/10/04 11:16:28;;;;;;;2.53;2.07;;;17.40;99.90;;;;;;5053191;28;20455;-67
2022/10/04 11:19:21;;;;;;;2.30;2.10;;;17.60;99.90;;;;;;5054015;28;20456;-68
2022/10/04 11:22:20;;;;;;;1.80;1.70;;;17.80;99.90;;;;;;5053435;28;20464;-68
2022/10/04 11:25:15;;;;;;;2.03;1.80;;;17.90;99.90;;;;;;5012761;28;20510;-68
2022/10/04 11:27:49;;;;;;;2.63;2.00;;;18.00;99.90;;;;;;5053862;28;20840;-68
2022/10/04 11:30:23;;;;;;;3.27;2.30;;;18.20;99.90;;;;;;5053617;28;20455;-68
2022/10/04 11:33:33;;;;;;;1.93;1.83;;;18.30;99.90;;;;;;5053006;28;20452;-67
2022/10/04 11:36:15;;;;;;;4.67;2.00;;;18.60;99.90;;;;;;4995179;28;20848;-69
2022/10/04 11:38:52;;;;;;;2.07;1.90;;;18.90;99.90;;;;;;5053088;28;20496;-66
2022/10/04 11:41:26;;;;;;;3.43;2.13;;;18.90;99.90;;;;;;5051949;28;20454;-67
2022/10/04 11:44:14;;;;;;;2.30;2.10;;;18.90;99.90;;;;;;5052685;28;20498;-67
2022/10/04 11:46:49;;;;;;;2.30;1.70;;;18.80;99.90;;;;;;5053091;28;20463;-67
2022/10/04 11:49:42;;;;;;;2.00;1.90;;;18.70;99.90;;;;;;5052408;28;20459;-68
2022/10/04 11:52:43;;;;;;;4.30;2.10;;;18.70;99.90;;;;;;5051926;28;20831;-68
2022/10/04 11:55:41;;;;;;;2.40;2.20;;;18.40;99.90;;;;;;5051569;28;20814;-68
2022/10/04 11:58:16;;;;;;;2.97;2.10;;;18.50;99.90;;;;;;5052142;28;20499;-68
2022/10/04 12:01:07;;;;;;;2.37;2.17;;;18.50;99.90;;;;;;5052813;28;20471;-68
2022/10/04 12:03:53;;;;;;;2.30;2.00;;;18.40;99.90;;;;;;5050624;28;20483;-70
2022/10/04 12:06:44;;;;;;;3.03;1.97;;;18.60;99.90;;;;;;5052571;28;20471;-68
2022/10/04 12:09:17;;;;;;;2.63;2.00;;;18.70;99.90;;;;;;5051220;28;20464;-68
2022/10/04 12:15:17;;;;;;;2.80;2.03;;;18.80;99.90;;;;;;5068882;28;20466;-67
2022/10/04 12:18:08;;;;;;;2.67;2.10;;;19.00;99.90;;;;;;5072639;28;20466;-68
2022/10/04 12:21:03;;;;;;;1.70;1.60;;;19.10;99.90;;;;;;5071655;28;20461;-68
2022/10/04 12:24:10;;;;;;;1.83;1.60;;;19.20;99.90;;;;;;5071706;28;20835;-67
2022/10/04 12:27:07;;;;;;;1.90;1.70;;;19.50;99.90;;;;;;4995801;28;20493;-69
2022/10/04 12:30:09;;;;;;;2.23;2.00;;;19.60;99.90;;;;;;5072462;28;20459;-69
2022/10/04 12:32:43;;;;;;;1.90;1.80;;;19.80;99.90;;;;;;5033259;28;20478;-69
2022/10/04 12:35:23;;;;;;;2.50;1.97;;;19.90;99.90;;;;;;5071343;28;20510;-68
2022/10/04 12:38:20;;;;;;;1.93;1.83;;;20.00;99.90;;;;;;5072183;28;20455;-68
2022/10/04 12:40:52;;;;;;;2.97;1.90;;;20.00;99.90;;;;;;5071615;28;20467;-68
2022/10/04 12:43:26;;;;;;;1.73;1.63;;;20.10;99.90;;;;;;5071051;28;20463;-69
2022/10/04 12:46:05;;;;;;;2.10;1.50;;;20.20;99.90;;;;;;5071301;28;21003;-68
2022/10/04 12:48:53;;;;;;;2.00;1.80;;;20.40;99.90;;;;;;5071725;28;20460;-67
2022/10/04 12:51:36;;;;;;;2.37;1.70;;;20.60;99.90;;;;;;5070998;28;20959;-68
2022/10/04 12:54:19;;;;;;;2.17;1.77;;;20.80;99.90;;;;;;5071165;28;20475;-68
2022/10/04 12:56:54;;;;;;;3.40;1.80;;;20.90;99.90;;;;;;5071441;28;20546;-68
2022/10/04 12:59:39;;;;;;;2.20;1.80;;;20.90;99.90;;;;;;5070922;28;20466;-68
2022/10/04 13:02:21;;;;;;;2.40;2.20;;;20.70;99.90;;;;;;5070611;28;20456;-69
2022/10/04 13:04:52;;;;;;;1.80;1.70;;;20.90;99.90;;;;;;5071094;28;20479;-68
2022/10/04 13:07:38;;;;;;;3.00;2.00;;;21.00;99.90;;;;;;5055437;28;20453;-68
2022/10/04 13:10:31;;;;;;;1.90;1.80;;;21.10;99.90;;;;;;5050471;28;20533;-68
2022/10/04 13:13:39;;;;;;;2.20;1.60;;;21.10;99.90;;;;;;5050296;28;20468;-68
2022/10/04 13:16:13;;;;;;;3.30;2.23;;;21.20;99.90;;;;;;5050625;28;20466;-67
2022/10/04 13:18:47;;;;;;;2.20;2.00;;;21.20;99.90;;;;;;5051088;28;20466;-68
2022/10/04 13:21:20;;;;;;;1.90;1.70;;;21.30;99.90;;;;;;5050427;28;20485;-68
2022/10/04 13:24:02;;;;;;;2.60;1.90;;;21.40;99.90;;;;;;5050942;28;20491;-68
2022/10/04 13:26:43;;;;;;;3.17;1.80;;;21.40;99.90;;;;;;5051056;28;20464;-69
2022/10/04 13:29:21;;;;;;;2.40;2.20;;;21.50;99.90;;;;;;5050893;28;20466;-67
2022/10/04 13:31:52;;;;;;;2.17;1.70;;;21.50;99.90;;;;;;5050775;28;20929;-67
2022/10/04 13:34:28;;;;;;;2.37;1.70;;;21.50;99.90;;;;;;5050316;28;20523;-67
2022/10/04 13:37:16;;;;;;;2.37;2.10;;;21.60;99.90;;;;;;5050825;28;20877;-67
2022/10/04 13:40:17;;;;;;;2.37;2.17;;;21.50;99.90;;;;;;5051140;28;20833;-69
2022/10/04 13:43:01;;;;;;;2.47;2.27;;;21.50;99.90;;;;;;5034604;28;20472;-69
2022/10/04 13:45:39;;;;;;;2.40;2.20;;;21.50;99.90;;;;;;5050777;28;20487;-69
2022/10/04 13:48:26;;;;;;;4.10;2.07;;;21.40;99.90;;;;;;5049956;28;20465;-69
2022/10/04 13:51:06;;;;;;;2.13;1.93;;;21.40;99.90;;;;;;5050798;28;20468;-68
2022/10/04 13:56:53;;;;;;;1.90;1.80;;;21.50;99.90;;;;;;5016828;28;20450;-71
2022/10/04 13:59:29;;;;;;;3.03;2.53;;;21.40;99.90;;;;;;5050206;28;20838;-69
2022/10/04 14:02:45;;;;;;;2.33;2.13;;;21.40;99.90;;;;;;5049911;28;20833;-69
2022/10/04 14:05:51;;;;;;;3.43;2.67;;;21.40;99.90;;;;;;5050043;28;21201;-67
2022/10/04 14:08:55;;;;;;;3.00;2.70;;;21.40;99.90;;;;;;5050264;28;20467;-68
2022/10/04 14:12:16;;;;;;;2.40;2.20;;;21.40;99.90;;;;;;5049772;28;20818;-68
2022/10/04 14:15:22;;;;;;;3.00;2.70;;;21.40;99.90;;;;;;4940755;28;20494;-68
2022/10/04 14:18:13;;;;;;;3.70;2.03;;;21.40;99.90;;;;;;5050828;28;20463;-68